Hutchinson County Airport - Borger, Texas, United States - FAA: BGD - ICAO: KBGD - IATA: BGD

 
  Longest Runway: 6,300 feet   Approach Types:    Customs Landing Rights Airport: No   Port of Entry: No

Local Forecast

This Afternoon (8/29): Mostly sunny, with a high near 91. North northwest wind around 5 mph.

Tonight (8/29): A 20 percent chance of showers and thunderstorms. Partly cloudy, with a low around 68. North wind around 5 mph becoming south after midnight.

Saturday (8/30): A 20 percent chance of showers and thunderstorms. Mostly sunny, with a high near 93. South southwest wind 5 to 10 mph.

Saturday Night (8/30): Partly cloudy, with a low around 68. South wind around 15 mph, with gusts as high as 20 mph.

Sunday (8/31): Mostly sunny, with a high near 96. Breezy, with a south southwest wind 10 to 15 mph increasing to 20 to 25 mph in the afternoon. Winds could gust as high as 30 mph.

Sunday Night (8/31): Partly cloudy, with a low around 68. South southwest wind 5 to 15 mph, with gusts as high as 20 mph.

Labor Day (9/1): Mostly sunny, with a high near 94. West wind 5 to 10 mph.



Current Weather (METAR)

2014/08/29 15:51 KBGD 291551Z AUTO 29008KT 10SM CLR 26/10 A3002 RMK AO2 SLP125 T02560100

BORGER HUTCHINSON CO AIRPORT , TX, United States (KBGD) 35-42N 101-24W 927M Aug 29, 2014 - 11:51 AM EDT / 2014.08.29 1551 UTC Wind: from the WNW (290 degrees) at 9 MPH (8 KT):0 Visibility: 10 mile(s):0 Sky conditions: clear Temperature: 78.1 F (25.6 C) Dew Point: 50.0 F (10.0 C) Relative Humidity: 37% Pressure (altimeter): 30.02 in. Hg (1016 hPa) ob: KBGD 291551Z AUTO 29008KT 10SM CLR 26/10 A3002 RMK AO2 SLP125 T02560100 cycle: 16

Terminal Forecast (TAF)